sensor_id;sensor_type;location;lat;lon;timestamp;temperature;humidity
1367;DHT22;16877;48.810;9.282;2023-08-21T00:01:30;34.80;54.90
1367;DHT22;16877;48.810;9.282;2023-08-21T00:03:57;34.70;55.10
1367;DHT22;16877;48.810;9.282;2023-08-21T00:06:24;34.60;55.20
1367;DHT22;16877;48.810;9.282;2023-08-21T00:08:51;34.60;55.30
1367;DHT22;16877;48.810;9.282;2023-08-21T00:11:18;34.60;55.40
1367;DHT22;16877;48.810;9.282;2023-08-21T00:13:47;34.50;55.50
1367;DHT22;16877;48.810;9.282;2023-08-21T00:16:15;34.50;55.60
1367;DHT22;16877;48.810;9.282;2023-08-21T00:18:43;34.50;55.60
1367;DHT22;16877;48.810;9.282;2023-08-21T00:21:10;34.50;55.70
1367;DHT22;16877;48.810;9.282;2023-08-21T00:23:36;34.40;55.80
1367;DHT22;16877;48.810;9.282;2023-08-21T00:26:04;34.40;55.80
1367;DHT22;16877;48.810;9.282;2023-08-21T00:28:31;34.50;55.80
1367;DHT22;16877;48.810;9.282;2023-08-21T00:31:02;34.40;55.80
1367;DHT22;16877;48.810;9.282;2023-08-21T00:33:31;34.40;55.90
1367;DHT22;16877;48.810;9.282;2023-08-21T00:35:58;34.30;56.60
1367;DHT22;16877;48.810;9.282;2023-08-21T00:38:25;34.20;56.20
1367;DHT22;16877;48.810;9.282;2023-08-21T00:40:53;34.20;56.30
1367;DHT22;16877;48.810;9.282;2023-08-21T00:43:20;34.20;56.40
1367;DHT22;16877;48.810;9.282;2023-08-21T00:45:48;34.20;56.40
1367;DHT22;16877;48.810;9.282;2023-08-21T00:48:18;34.10;56.40
1367;DHT22;16877;48.810;9.282;2023-08-21T00:50:48;34.10;56.50
1367;DHT22;16877;48.810;9.282;2023-08-21T00:53:16;34.10;56.70
1367;DHT22;16877;48.810;9.282;2023-08-21T00:55:43;34.00;56.70
1367;DHT22;16877;48.810;9.282;2023-08-21T00:58:11;34.00;56.70
1367;DHT22;16877;48.810;9.282;2023-08-21T01:00:41;33.90;56.80
1367;DHT22;16877;48.810;9.282;2023-08-21T01:03:08;33.90;57.00
1367;DHT22;16877;48.810;9.282;2023-08-21T01:05:37;33.90;57.10
1367;DHT22;16877;48.810;9.282;2023-08-21T01:08:08;33.80;57.10
1367;DHT22;16877;48.810;9.282;2023-08-21T01:10:42;33.80;57.10
1367;DHT22;16877;48.810;9.282;2023-08-21T01:13:23;33.70;57.10
1367;DHT22;16877;48.810;9.282;2023-08-21T01:15:51;33.80;57.20
1367;DHT22;16877;48.810;9.282;2023-08-21T01:18:22;33.70;57.20
1367;DHT22;16877;48.810;9.282;2023-08-21T01:20:51;33.70;57.30
1367;DHT22;16877;48.810;9.282;2023-08-21T01:23:44;33.70;57.50
1367;DHT22;16877;48.810;9.282;2023-08-21T01:26:12;33.70;57.60
1367;DHT22;16877;48.810;9.282;2023-08-21T01:28:39;33.70;57.50
1367;DHT22;16877;48.810;9.282;2023-08-21T01:31:09;33.60;57.50
1367;DHT22;16877;48.810;9.282;2023-08-21T01:33:43;33.70;57.50
1367;DHT22;16877;48.810;9.282;2023-08-21T01:36:12;33.70;57.50
1367;DHT22;16877;48.810;9.282;2023-08-21T01:38:40;33.60;57.60
1367;DHT22;16877;48.810;9.282;2023-08-21T01:41:10;33.50;57.70
1367;DHT22;16877;48.810;9.282;2023-08-21T01:43:38;33.50;57.80
1367;DHT22;16877;48.810;9.282;2023-08-21T01:46:05;33.50;58.60
1367;DHT22;16877;48.810;9.282;2023-08-21T01:48:33;33.50;58.00
1367;DHT22;16877;48.810;9.282;2023-08-21T01:51:00;33.50;57.90
1367;DHT22;16877;48.810;9.282;2023-08-21T01:53:28;33.50;57.90
1367;DHT22;16877;48.810;9.282;2023-08-21T01:55:55;33.50;57.90
1367;DHT22;16877;48.810;9.282;2023-08-21T01:58:24;33.40;58.20
1367;DHT22;16877;48.810;9.282;2023-08-21T02:00:52;33.40;58.10
1367;DHT22;16877;48.810;9.282;2023-08-21T02:03:20;33.40;58.00
1367;DHT22;16877;48.810;9.282;2023-08-21T02:05:47;33.40;58.00
1367;DHT22;16877;48.810;9.282;2023-08-21T02:08:15;33.40;58.10
1367;DHT22;16877;48.810;9.282;2023-08-21T02:10:49;33.30;58.10
1367;DHT22;16877;48.810;9.282;2023-08-21T02:13:16;33.30;58.30
1367;DHT22;16877;48.810;9.282;2023-08-21T02:15:45;33.20;58.30
1367;DHT22;16877;48.810;9.282;2023-08-21T02:18:12;33.20;58.40
1367;DHT22;16877;48.810;9.282;2023-08-21T02:20:39;33.20;58.40
1367;DHT22;16877;48.810;9.282;2023-08-21T02:23:07;33.10;58.50
1367;DHT22;16877;48.810;9.282;2023-08-21T02:25:34;33.10;58.50
1367;DHT22;16877;48.810;9.282;2023-08-21T02:28:02;33.10;58.60
1367;DHT22;16877;48.810;9.282;2023-08-21T02:30:30;33.00;58.60
1367;DHT22;16877;48.810;9.282;2023-08-21T02:32:59;33.00;58.80
1367;DHT22;16877;48.810;9.282;2023-08-21T02:35:26;32.90;58.80
1367;DHT22;16877;48.810;9.282;2023-08-21T02:37:54;32.90;58.90
1367;DHT22;16877;48.810;9.282;2023-08-21T02:40:21;32.90;59.00
1367;DHT22;16877;48.810;9.282;2023-08-21T02:42:49;32.90;59.00
1367;DHT22;16877;48.810;9.282;2023-08-21T02:45:16;32.90;59.00
1367;DHT22;16877;48.810;9.282;2023-08-21T02:47:44;32.80;59.10
1367;DHT22;16877;48.810;9.282;2023-08-21T02:50:13;32.80;59.20
1367;DHT22;16877;48.810;9.282;2023-08-21T02:52:41;32.80;59.20
1367;DHT22;16877;48.810;9.282;2023-08-21T02:55:09;32.70;59.20
1367;DHT22;16877;48.810;9.282;2023-08-21T02:57:37;32.70;59.30
1367;DHT22;16877;48.810;9.282;2023-08-21T03:00:06;32.70;59.40
1367;DHT22;16877;48.810;9.282;2023-08-21T03:02:34;32.60;59.40
1367;DHT22;16877;48.810;9.282;2023-08-21T03:05:01;32.60;59.50
1367;DHT22;16877;48.810;9.282;2023-08-21T03:07:31;32.60;59.50
1367;DHT22;16877;48.810;9.282;2023-08-21T03:09:59;32.60;59.50
1367;DHT22;16877;48.810;9.282;2023-08-21T03:12:27;32.60;59.50
1367;DHT22;16877;48.810;9.282;2023-08-21T03:14:55;32.60;59.50
1367;DHT22;16877;48.810;9.282;2023-08-21T03:17:37;32.60;59.50
1367;DHT22;16877;48.810;9.282;2023-08-21T03:20:05;32.50;59.50
1367;DHT22;16877;48.810;9.282;2023-08-21T03:22:35;32.50;59.60
1367;DHT22;16877;48.810;9.282;2023-08-21T03:25:03;32.40;59.70
1367;DHT22;16877;48.810;9.282;2023-08-21T03:27:31;32.40;59.70
1367;DHT22;16877;48.810;9.282;2023-08-21T03:29:58;32.40;59.80
1367;DHT22;16877;48.810;9.282;2023-08-21T03:32:26;32.40;59.80
1367;DHT22;16877;48.810;9.282;2023-08-21T03:34:54;32.40;59.80
1367;DHT22;16877;48.810;9.282;2023-08-21T03:37:22;32.40;59.80
1367;DHT22;16877;48.810;9.282;2023-08-21T03:39:51;32.40;59.80
1367;DHT22;16877;48.810;9.282;2023-08-21T03:42:19;32.40;59.90
1367;DHT22;16877;48.810;9.282;2023-08-21T03:44:46;32.40;59.90
1367;DHT22;16877;48.810;9.282;2023-08-21T03:47:15;32.30;59.90
1367;DHT22;16877;48.810;9.282;2023-08-21T03:49:43;32.30;66.60
1367;DHT22;16877;48.810;9.282;2023-08-21T03:52:11;32.40;60.80
1367;DHT22;16877;48.810;9.282;2023-08-21T03:54:38;32.20;60.90
1367;DHT22;16877;48.810;9.282;2023-08-21T03:57:07;32.30;60.30
1367;DHT22;16877;48.810;9.282;2023-08-21T03:59:35;32.30;60.20
1367;DHT22;16877;48.810;9.282;2023-08-21T04:02:02;32.30;60.20
1367;DHT22;16877;48.810;9.282;2023-08-21T04:04:30;32.20;60.20
1367;DHT22;16877;48.810;9.282;2023-08-21T04:06:58;32.20;60.50
1367;DHT22;16877;48.810;9.282;2023-08-21T04:09:25;32.20;59.60
1367;DHT22;16877;48.810;9.282;2023-08-21T04:11:53;32.20;60.20
1367;DHT22;16877;48.810;9.282;2023-08-21T04:14:22;32.20;60.30
1367;DHT22;16877;48.810;9.282;2023-08-21T04:16:50;32.20;60.30
1367;DHT22;16877;48.810;9.282;2023-08-21T04:19:17;32.10;60.40
1367;DHT22;16877;48.810;9.282;2023-08-21T04:21:45;32.10;60.50
1367;DHT22;16877;48.810;9.282;2023-08-21T04:24:16;32.10;60.50
1367;DHT22;16877;48.810;9.282;2023-08-21T04:26:44;32.10;60.60
1367;DHT22;16877;48.810;9.282;2023-08-21T04:29:11;32.10;60.70
1367;DHT22;16877;48.810;9.282;2023-08-21T04:31:43;32.00;60.70
1367;DHT22;16877;48.810;9.282;2023-08-21T04:34:10;32.00;60.80
1367;DHT22;16877;48.810;9.282;2023-08-21T04:36:38;32.00;60.90
1367;DHT22;16877;48.810;9.282;2023-08-21T04:39:05;32.00;60.90
1367;DHT22;16877;48.810;9.282;2023-08-21T04:41:33;32.00;60.90
1367;DHT22;16877;48.810;9.282;2023-08-21T04:44:01;32.00;61.00
1367;DHT22;16877;48.810;9.282;2023-08-21T04:46:28;32.00;60.90
1367;DHT22;16877;48.810;9.282;2023-08-21T04:48:57;32.00;60.90
1367;DHT22;16877;48.810;9.282;2023-08-21T04:51:25;32.10;60.90
1367;DHT22;16877;48.810;9.282;2023-08-21T04:53:52;32.00;60.90
1367;DHT22;16877;48.810;9.282;2023-08-21T04:56:20;32.10;60.90
1367;DHT22;16877;48.810;9.282;2023-08-21T04:58:47;32.10;60.90
1367;DHT22;16877;48.810;9.282;2023-08-21T05:01:15;32.10;61.00
1367;DHT22;16877;48.810;9.282;2023-08-21T05:03:42;32.10;60.90
1367;DHT22;16877;48.810;9.282;2023-08-21T05:06:12;32.10;60.90
1367;DHT22;16877;48.810;9.282;2023-08-21T05:08:40;32.10;60.90
1367;DHT22;16877;48.810;9.282;2023-08-21T05:11:08;32.10;60.80
1367;DHT22;16877;48.810;9.282;2023-08-21T05:13:36;32.10;60.80
1367;DHT22;16877;48.810;9.282;2023-08-21T05:16:04;32.10;60.80
1367;DHT22;16877;48.810;9.282;2023-08-21T05:18:31;32.10;60.80
1367;DHT22;16877;48.810;9.282;2023-08-21T05:20:59;32.10;60.80
1367;DHT22;16877;48.810;9.282;2023-08-21T05:23:28;32.10;60.80
1367;DHT22;16877;48.810;9.282;2023-08-21T05:25:56;32.10;61.00
1367;DHT22;16877;48.810;9.282;2023-08-21T05:28:23;32.10;60.90
1367;DHT22;16877;48.810;9.282;2023-08-21T05:30:50;32.10;60.90
1367;DHT22;16877;48.810;9.282;2023-08-21T05:33:17;32.20;61.00
1367;DHT22;16877;48.810;9.282;2023-08-21T05:35:45;32.20;60.80
1367;DHT22;16877;48.810;9.282;2023-08-21T05:38:12;32.20;60.80
1367;DHT22;16877;48.810;9.282;2023-08-21T05:40:42;32.20;60.70
1367;DHT22;16877;48.810;9.282;2023-08-21T05:43:10;32.20;60.80
1367;DHT22;16877;48.810;9.282;2023-08-21T05:45:37;32.20;60.80
1367;DHT22;16877;48.810;9.282;2023-08-21T05:48:05;32.20;60.80
1367;DHT22;16877;48.810;9.282;2023-08-21T05:50:32;32.30;61.00
1367;DHT22;16877;48.810;9.282;2023-08-21T05:53:02;32.30;60.90
1367;DHT22;16877;48.810;9.282;2023-08-21T05:55:29;32.40;60.80
1367;DHT22;16877;48.810;9.282;2023-08-21T05:57:58;32.40;60.80
1367;DHT22;16877;48.810;9.282;2023-08-21T06:00:25;32.40;60.80
1367;DHT22;16877;48.810;9.282;2023-08-21T06:02:54;32.40;60.80
1367;DHT22;16877;48.810;9.282;2023-08-21T06:05:22;32.40;60.70
1367;DHT22;16877;48.810;9.282;2023-08-21T06:07:50;32.50;60.80
1367;DHT22;16877;48.810;9.282;2023-08-21T06:10:20;32.50;60.60
1367;DHT22;16877;48.810;9.282;2023-08-21T06:12:48;32.50;60.70
1367;DHT22;16877;48.810;9.282;2023-08-21T06:15:19;32.60;60.70
1367;DHT22;16877;48.810;9.282;2023-08-21T06:17:47;32.60;61.60
1367;DHT22;16877;48.810;9.282;2023-08-21T06:20:15;32.60;61.40
1367;DHT22;16877;48.810;9.282;2023-08-21T06:22:42;32.70;61.40
1367;DHT22;16877;48.810;9.282;2023-08-21T06:25:09;32.70;61.10
1367;DHT22;16877;48.810;9.282;2023-08-21T06:27:39;32.80;61.10
1367;DHT22;16877;48.810;9.282;2023-08-21T06:30:33;32.80;61.70
1367;DHT22;16877;48.810;9.282;2023-08-21T06:33:01;32.90;60.50
1367;DHT22;16877;48.810;9.282;2023-08-21T06:35:28;32.80;61.00
1367;DHT22;16877;48.810;9.282;2023-08-21T06:37:55;32.90;60.40
1367;DHT22;16877;48.810;9.282;2023-08-21T06:40:23;32.90;60.40
1367;DHT22;16877;48.810;9.282;2023-08-21T06:42:51;33.00;59.90
1367;DHT22;16877;48.810;9.282;2023-08-21T06:45:18;33.00;59.80
1367;DHT22;16877;48.810;9.282;2023-08-21T06:47:48;33.00;59.50
1367;DHT22;16877;48.810;9.282;2023-08-21T06:50:16;33.00;59.50
1367;DHT22;16877;48.810;9.282;2023-08-21T06:52:43;33.00;59.50
1367;DHT22;16877;48.810;9.282;2023-08-21T06:55:10;33.10;59.40
1367;DHT22;16877;48.810;9.282;2023-08-21T06:57:37;33.10;59.20
1367;DHT22;16877;48.810;9.282;2023-08-21T07:00:06;33.10;59.20
1367;DHT22;16877;48.810;9.282;2023-08-21T07:02:34;33.10;59.20
1367;DHT22;16877;48.810;9.282;2023-08-21T07:05:03;33.20;59.10
1367;DHT22;16877;48.810;9.282;2023-08-21T07:07:31;33.20;58.90
1367;DHT22;16877;48.810;9.282;2023-08-21T07:09:58;33.30;58.90
1367;DHT22;16877;48.810;9.282;2023-08-21T07:12:26;33.40;58.80
1367;DHT22;16877;48.810;9.282;2023-08-21T07:14:53;33.40;58.70
1367;DHT22;16877;48.810;9.282;2023-08-21T07:17:21;33.40;58.60
1367;DHT22;16877;48.810;9.282;2023-08-21T07:19:48;33.60;58.50
1367;DHT22;16877;48.810;9.282;2023-08-21T07:22:19;33.50;58.50
1367;DHT22;16877;48.810;9.282;2023-08-21T07:24:46;33.60;58.60
1367;DHT22;16877;48.810;9.282;2023-08-21T07:27:14;33.60;58.40
1367;DHT22;16877;48.810;9.282;2023-08-21T07:29:41;33.70;58.30
1367;DHT22;16877;48.810;9.282;2023-08-21T07:32:09;33.70;58.70
1367;DHT22;16877;48.810;9.282;2023-08-21T07:34:37;33.80;58.00
1367;DHT22;16877;48.810;9.282;2023-08-21T07:37:04;33.80;57.80
1367;DHT22;16877;48.810;9.282;2023-08-21T07:39:36;33.80;58.30
1367;DHT22;16877;48.810;9.282;2023-08-21T07:42:04;33.80;57.70
1367;DHT22;16877;48.810;9.282;2023-08-21T07:44:32;33.80;57.80
1367;DHT22;16877;48.810;9.282;2023-08-21T07:46:59;33.90;57.70
1367;DHT22;16877;48.810;9.282;2023-08-21T07:49:26;33.90;57.60
1367;DHT22;16877;48.810;9.282;2023-08-21T07:51:53;34.00;57.70
1367;DHT22;16877;48.810;9.282;2023-08-21T07:54:21;34.00;57.60
1367;DHT22;16877;48.810;9.282;2023-08-21T07:56:51;34.10;57.70
1367;DHT22;16877;48.810;9.282;2023-08-21T07:59:19;34.20;57.50
1367;DHT22;16877;48.810;9.282;2023-08-21T08:01:46;34.30;57.50
1367;DHT22;16877;48.810;9.282;2023-08-21T08:04:14;34.40;57.20
1367;DHT22;16877;48.810;9.282;2023-08-21T08:06:42;34.50;57.10
1367;DHT22;16877;48.810;9.282;2023-08-21T08:09:09;34.60;57.10
1367;DHT22;16877;48.810;9.282;2023-08-21T08:11:36;34.70;57.00
1367;DHT22;16877;48.810;9.282;2023-08-21T08:14:05;34.80;56.70
1367;DHT22;16877;48.810;9.282;2023-08-21T08:16:33;35.00;56.80
1367;DHT22;16877;48.810;9.282;2023-08-21T08:19:00;35.10;56.80
1367;DHT22;16877;48.810;9.282;2023-08-21T08:21:31;35.20;56.60
1367;DHT22;16877;48.810;9.282;2023-08-21T08:24:02;35.40;56.30
1367;DHT22;16877;48.810;9.282;2023-08-21T08:26:44;35.50;55.90
1367;DHT22;16877;48.810;9.282;2023-08-21T08:29:14;35.60;55.60
1367;DHT22;16877;48.810;9.282;2023-08-21T08:31:43;35.80;55.50
1367;DHT22;16877;48.810;9.282;2023-08-21T08:34:11;35.90;55.30
1367;DHT22;16877;48.810;9.282;2023-08-21T08:36:38;36.10;55.30
1367;DHT22;16877;48.810;9.282;2023-08-21T08:39:07;36.20;55.10
1367;DHT22;16877;48.810;9.282;2023-08-21T08:41:41;36.30;55.00
1367;DHT22;16877;48.810;9.282;2023-08-21T08:44:14;36.50;54.90
1367;DHT22;16877;48.810;9.282;2023-08-21T08:46:44;36.60;54.60
1367;DHT22;16877;48.810;9.282;2023-08-21T08:49:14;36.80;54.30
1367;DHT22;16877;48.810;9.282;2023-08-21T08:51:42;37.00;53.90
1367;DHT22;16877;48.810;9.282;2023-08-21T08:54:25;37.10;53.60
1367;DHT22;16877;48.810;9.282;2023-08-21T08:56:54;37.30;53.20
1367;DHT22;16877;48.810;9.282;2023-08-21T08:59:23;37.50;52.80
1367;DHT22;16877;48.810;9.282;2023-08-21T09:01:51;37.80;52.60
1367;DHT22;16877;48.810;9.282;2023-08-21T09:04:18;38.00;52.20
1367;DHT22;16877;48.810;9.282;2023-08-21T09:06:46;38.20;51.90
1367;DHT22;16877;48.810;9.282;2023-08-21T09:09:14;38.30;51.60
1367;DHT22;16877;48.810;9.282;2023-08-21T09:11:43;38.40;51.40
1367;DHT22;16877;48.810;9.282;2023-08-21T09:14:11;38.50;51.70
1367;DHT22;16877;48.810;9.282;2023-08-21T09:16:59;38.60;51.50
1367;DHT22;16877;48.810;9.282;2023-08-21T09:19:27;38.80;51.10
1367;DHT22;16877;48.810;9.282;2023-08-21T09:21:55;38.90;51.00
1367;DHT22;16877;48.810;9.282;2023-08-21T09:24:22;39.10;50.60
1367;DHT22;16877;48.810;9.282;2023-08-21T09:26:50;39.30;50.70
1367;DHT22;16877;48.810;9.282;2023-08-21T09:29:38;39.50;50.50
1367;DHT22;16877;48.810;9.282;2023-08-21T09:32:10;39.70;50.00
1367;DHT22;16877;48.810;9.282;2023-08-21T09:34:37;39.70;49.80
1367;DHT22;16877;48.810;9.282;2023-08-21T09:37:06;39.80;49.40
1367;DHT22;16877;48.810;9.282;2023-08-21T09:39:35;40.00;49.30
1367;DHT22;16877;48.810;9.282;2023-08-21T09:42:05;40.00;48.50
1367;DHT22;16877;48.810;9.282;2023-08-21T09:44:37;40.20;48.50
1367;DHT22;16877;48.810;9.282;2023-08-21T09:47:09;40.40;48.00
1367;DHT22;16877;48.810;9.282;2023-08-21T09:49:39;40.50;47.90
1367;DHT22;16877;48.810;9.282;2023-08-21T09:52:07;40.60;47.70
1367;DHT22;16877;48.810;9.282;2023-08-21T09:54:37;40.80;47.60
1367;DHT22;16877;48.810;9.282;2023-08-21T09:57:05;41.00;47.60
1367;DHT22;16877;48.810;9.282;2023-08-21T09:59:32;41.10;47.40
1367;DHT22;16877;48.810;9.282;2023-08-21T10:02:02;41.30;47.10
1367;DHT22;16877;48.810;9.282;2023-08-21T10:04:40;41.40;46.20
1367;DHT22;16877;48.810;9.282;2023-08-21T10:07:11;41.60;45.80
1367;DHT22;16877;48.810;9.282;2023-08-21T10:09:41;41.70;45.60
1367;DHT22;16877;48.810;9.282;2023-08-21T10:12:09;41.90;45.20
1367;DHT22;16877;48.810;9.282;2023-08-21T10:14:38;42.20;44.80
1367;DHT22;16877;48.810;9.282;2023-08-21T10:17:05;42.30;44.60
1367;DHT22;16877;48.810;9.282;2023-08-21T10:19:40;42.50;44.40
1367;DHT22;16877;48.810;9.282;2023-08-21T10:22:07;42.70;44.00
1367;DHT22;16877;48.810;9.282;2023-08-21T10:24:36;42.90;43.70
1367;DHT22;16877;48.810;9.282;2023-08-21T10:27:04;43.10;43.50
1367;DHT22;16877;48.810;9.282;2023-08-21T10:29:34;43.20;43.50
1367;DHT22;16877;48.810;9.282;2023-08-21T10:32:05;43.50;43.50
1367;DHT22;16877;48.810;9.282;2023-08-21T10:34:35;43.60;43.20
1367;DHT22;16877;48.810;9.282;2023-08-21T10:37:05;43.80;42.50
1367;DHT22;16877;48.810;9.282;2023-08-21T10:39:33;43.90;42.10
1367;DHT22;16877;48.810;9.282;2023-08-21T10:42:06;44.00;42.10
1367;DHT22;16877;48.810;9.282;2023-08-21T10:44:50;44.10;42.40
1367;DHT22;16877;48.810;9.282;2023-08-21T10:47:31;44.20;42.30
1367;DHT22;16877;48.810;9.282;2023-08-21T10:50:04;44.20;41.70
1367;DHT22;16877;48.810;9.282;2023-08-21T10:52:35;44.40;41.90
1367;DHT22;16877;48.810;9.282;2023-08-21T10:55:09;44.60;42.10
1367;DHT22;16877;48.810;9.282;2023-08-21T10:57:51;44.70;42.10
1367;DHT22;16877;48.810;9.282;2023-08-21T11:00:20;44.80;41.90
1367;DHT22;16877;48.810;9.282;2023-08-21T11:02:49;44.80;41.70
1367;DHT22;16877;48.810;9.282;2023-08-21T11:05:33;44.90;41.70
1367;DHT22;16877;48.810;9.282;2023-08-21T11:08:18;45.00;41.50
1367;DHT22;16877;48.810;9.282;2023-08-21T11:11:00;45.10;41.40
1367;DHT22;16877;48.810;9.282;2023-08-21T11:13:28;45.20;41.20
1367;DHT22;16877;48.810;9.282;2023-08-21T11:16:10;45.30;41.00
1367;DHT22;16877;48.810;9.282;2023-08-21T11:18:53;45.50;40.90
1367;DHT22;16877;48.810;9.282;2023-08-21T11:21:23;45.70;40.50
1367;DHT22;16877;48.810;9.282;2023-08-21T11:23:51;45.80;40.30
1367;DHT22;16877;48.810;9.282;2023-08-21T11:26:20;45.10;40.00
1367;DHT22;16877;48.810;9.282;2023-08-21T11:28:48;45.00;40.90
1367;DHT22;16877;48.810;9.282;2023-08-21T11:31:16;45.40;41.00
1367;DHT22;16877;48.810;9.282;2023-08-21T11:33:49;45.60;40.70
1367;DHT22;16877;48.810;9.282;2023-08-21T11:36:33;45.80;40.50
1367;DHT22;16877;48.810;9.282;2023-08-21T11:39:16;45.90;39.70
1367;DHT22;16877;48.810;9.282;2023-08-21T11:42:08;46.00;39.60
1367;DHT22;16877;48.810;9.282;2023-08-21T11:44:47;46.10;39.50
1367;DHT22;16877;48.810;9.282;2023-08-21T11:47:16;46.30;39.70
1367;DHT22;16877;48.810;9.282;2023-08-21T11:50:05;46.40;39.60
1367;DHT22;16877;48.810;9.282;2023-08-21T11:52:52;46.50;39.40
1367;DHT22;16877;48.810;9.282;2023-08-21T11:55:19;46.50;39.10
1367;DHT22;16877;48.810;9.282;2023-08-21T11:57:48;46.00;38.90
1367;DHT22;16877;48.810;9.282;2023-08-21T12:00:15;46.10;39.50
1367;DHT22;16877;48.810;9.282;2023-08-21T12:02:53;46.30;39.80
1367;DHT22;16877;48.810;9.282;2023-08-21T12:05:28;46.60;39.60
1367;DHT22;16877;48.810;9.282;2023-08-21T12:07:58;46.90;40.10
1367;DHT22;16877;48.810;9.282;2023-08-21T12:10:41;46.50;38.90
1367;DHT22;16877;48.810;9.282;2023-08-21T12:13:08;46.00;39.40
1367;DHT22;16877;48.810;9.282;2023-08-21T12:15:36;45.60;39.80
1367;DHT22;16877;48.810;9.282;2023-08-21T12:18:04;45.30;40.00
1367;DHT22;16877;48.810;9.282;2023-08-21T12:20:32;45.20;40.40
1367;DHT22;16877;48.810;9.282;2023-08-21T12:23:01;45.50;40.70
1367;DHT22;16877;48.810;9.282;2023-08-21T12:25:28;45.20;40.50
1367;DHT22;16877;48.810;9.282;2023-08-21T12:27:57;44.90;40.40
1367;DHT22;16877;48.810;9.282;2023-08-21T12:30:25;44.60;40.50
1367;DHT22;16877;48.810;9.282;2023-08-21T12:32:52;44.40;40.90
1367;DHT22;16877;48.810;9.282;2023-08-21T12:35:19;44.20;41.00
1367;DHT22;16877;48.810;9.282;2023-08-21T12:37:47;44.00;41.30
1367;DHT22;16877;48.810;9.282;2023-08-21T12:40:16;43.80;41.50
1367;DHT22;16877;48.810;9.282;2023-08-21T12:42:44;43.70;41.70
1367;DHT22;16877;48.810;9.282;2023-08-21T12:45:26;44.20;41.70
1367;DHT22;16877;48.810;9.282;2023-08-21T12:47:53;44.50;41.10
1367;DHT22;16877;48.810;9.282;2023-08-21T12:50:21;44.90;40.60
1367;DHT22;16877;48.810;9.282;2023-08-21T12:52:53;45.30;40.10
1367;DHT22;16877;48.810;9.282;2023-08-21T12:55:25;45.70;40.00
1367;DHT22;16877;48.810;9.282;2023-08-21T12:57:52;46.00;39.30
1367;DHT22;16877;48.810;9.282;2023-08-21T13:00:20;46.30;38.90
1367;DHT22;16877;48.810;9.282;2023-08-21T13:02:48;46.60;38.70
1367;DHT22;16877;48.810;9.282;2023-08-21T13:05:16;46.70;38.90
1367;DHT22;16877;48.810;9.282;2023-08-21T13:07:44;47.00;38.90
1367;DHT22;16877;48.810;9.282;2023-08-21T13:10:12;46.60;38.30
1367;DHT22;16877;48.810;9.282;2023-08-21T13:12:41;46.80;38.60
1367;DHT22;16877;48.810;9.282;2023-08-21T13:15:09;47.00;38.40
1367;DHT22;16877;48.810;9.282;2023-08-21T13:17:37;47.30;38.60
1367;DHT22;16877;48.810;9.282;2023-08-21T13:20:10;47.50;38.20
1367;DHT22;16877;48.810;9.282;2023-08-21T13:22:45;47.80;37.90
1367;DHT22;16877;48.810;9.282;2023-08-21T13:25:12;47.50;37.30
1367;DHT22;16877;48.810;9.282;2023-08-21T13:27:41;47.00;37.60
1367;DHT22;16877;48.810;9.282;2023-08-21T13:30:10;47.30;37.90
1367;DHT22;16877;48.810;9.282;2023-08-21T13:32:38;47.30;37.20
1367;DHT22;16877;48.810;9.282;2023-08-21T13:35:05;47.30;37.30
1367;DHT22;16877;48.810;9.282;2023-08-21T13:37:34;47.30;37.30
1367;DHT22;16877;48.810;9.282;2023-08-21T13:40:01;47.40;37.70
1367;DHT22;16877;48.810;9.282;2023-08-21T13:42:35;47.80;37.60
1367;DHT22;16877;48.810;9.282;2023-08-21T13:45:12;48.00;37.10
1367;DHT22;16877;48.810;9.282;2023-08-21T13:47:40;48.20;37.00
1367;DHT22;16877;48.810;9.282;2023-08-21T13:50:09;48.40;36.80
1367;DHT22;16877;48.810;9.282;2023-08-21T13:52:37;48.60;36.60
1367;DHT22;16877;48.810;9.282;2023-08-21T13:55:06;48.70;36.30
1367;DHT22;16877;48.810;9.282;2023-08-21T13:57:34;48.80;36.10
1367;DHT22;16877;48.810;9.282;2023-08-21T14:00:03;48.80;35.90
1367;DHT22;16877;48.810;9.282;2023-08-21T14:02:34;48.90;35.80
1367;DHT22;16877;48.810;9.282;2023-08-21T14:05:02;49.00;35.60
1367;DHT22;16877;48.810;9.282;2023-08-21T14:07:30;49.10;35.70
1367;DHT22;16877;48.810;9.282;2023-08-21T14:09:57;49.10;35.60
1367;DHT22;16877;48.810;9.282;2023-08-21T14:12:27;49.10;35.80
1367;DHT22;16877;48.810;9.282;2023-08-21T14:14:54;49.10;35.80
1367;DHT22;16877;48.810;9.282;2023-08-21T14:17:22;49.10;35.90
1367;DHT22;16877;48.810;9.282;2023-08-21T14:20:08;49.00;35.60
1367;DHT22;16877;48.810;9.282;2023-08-21T14:22:36;49.00;35.50
1367;DHT22;16877;48.810;9.282;2023-08-21T14:25:05;49.10;35.30
1367;DHT22;16877;48.810;9.282;2023-08-21T14:27:32;49.10;35.10
1367;DHT22;16877;48.810;9.282;2023-08-21T14:30:00;49.10;34.90
1367;DHT22;16877;48.810;9.282;2023-08-21T14:32:27;49.10;35.00
1367;DHT22;16877;48.810;9.282;2023-08-21T14:34:54;48.50;34.80
1367;DHT22;16877;48.810;9.282;2023-08-21T14:37:23;48.30;35.30
1367;DHT22;16877;48.810;9.282;2023-08-21T14:39:50;48.30;35.40
1367;DHT22;16877;48.810;9.282;2023-08-21T14:42:18;48.30;35.70
1367;DHT22;16877;48.810;9.282;2023-08-21T14:44:46;48.30;35.70
1367;DHT22;16877;48.810;9.282;2023-08-21T14:47:13;48.30;35.50
1367;DHT22;16877;48.810;9.282;2023-08-21T14:49:41;48.50;35.60
1367;DHT22;16877;48.810;9.282;2023-08-21T14:52:12;48.60;35.70
1367;DHT22;16877;48.810;9.282;2023-08-21T14:54:42;48.60;35.70
1367;DHT22;16877;48.810;9.282;2023-08-21T14:57:16;48.70;35.70
1367;DHT22;16877;48.810;9.282;2023-08-21T14:59:43;48.80;35.50
1367;DHT22;16877;48.810;9.282;2023-08-21T15:02:11;48.80;35.10
1367;DHT22;16877;48.810;9.282;2023-08-21T15:04:40;48.80;35.10
1367;DHT22;16877;48.810;9.282;2023-08-21T15:07:08;48.80;35.10
1367;DHT22;16877;48.810;9.282;2023-08-21T15:09:36;48.90;35.20
1367;DHT22;16877;48.810;9.282;2023-08-21T15:12:06;48.90;35.00
1367;DHT22;16877;48.810;9.282;2023-08-21T15:14:35;48.80;34.80
1367;DHT22;16877;48.810;9.282;2023-08-21T15:17:02;48.80;34.90
1367;DHT22;16877;48.810;9.282;2023-08-21T15:19:29;48.80;34.90
1367;DHT22;16877;48.810;9.282;2023-08-21T15:21:57;48.80;35.00
1367;DHT22;16877;48.810;9.282;2023-08-21T15:24:24;48.90;35.00
1367;DHT22;16877;48.810;9.282;2023-08-21T15:26:52;48.70;34.80
1367;DHT22;16877;48.810;9.282;2023-08-21T15:29:21;48.70;34.70
1367;DHT22;16877;48.810;9.282;2023-08-21T15:31:49;48.60;34.90
1367;DHT22;16877;48.810;9.282;2023-08-21T15:34:16;48.70;35.00
1367;DHT22;16877;48.810;9.282;2023-08-21T15:36:44;48.60;34.90
1367;DHT22;16877;48.810;9.282;2023-08-21T15:39:11;48.60;34.90
1367;DHT22;16877;48.810;9.282;2023-08-21T15:41:39;48.60;35.00
1367;DHT22;16877;48.810;9.282;2023-08-21T15:44:08;48.50;35.00
1367;DHT22;16877;48.810;9.282;2023-08-21T15:46:37;48.50;35.10
1367;DHT22;16877;48.810;9.282;2023-08-21T15:49:05;48.50;35.30
1367;DHT22;16877;48.810;9.282;2023-08-21T15:51:35;48.30;35.30
1367;DHT22;16877;48.810;9.282;2023-08-21T15:54:03;48.30;35.40
1367;DHT22;16877;48.810;9.282;2023-08-21T15:56:31;48.20;35.40
1367;DHT22;16877;48.810;9.282;2023-08-21T15:58:58;48.10;35.50